MSC Romane — CQZN — position and weather

sailwx.info

Track history (hours):
 
Tides and Currents Weather Stations Pressure Air Temp Water Temp Dewpoint Dewpoint Depression Visibility Wind Speed Wind Dir Waves Ship Positions

MSC Romane

Last reported at 2017-Sep-20 21:00 UTC. Time now 2017-Sep-20 23:41 UTC.
Position S 33°50' E 018°14'.

Length 299 m; draft 12.1 m.

Type: Cargo ship. MMSI: 255805867.

Date/timePositionNaut miles runAvg speedWind from/ knotsBaromVisibWave heightAir tempDewpointWater temp
2017-Sep-20 21:00S 33°50' E 018°14'2 3.3
2017-Sep-20 20:30S 33°52' E 018°13'2 4.7
2017-Sep-20 20:00S 33°54' E 018°12'0 0.9
2017-Sep-20 19:28S 33°53' E 018°12'1 1.2
2017-Sep-20 18:14S 33°52' E 018°11'0 0.9
2017-Sep-20 17:55S 33°52' E 018°12'0 0.7
2017-Sep-20 17:28S 33°52' E 018°12'0 0.7
2017-Sep-20 16:58S 33°53' E 018°12'2 1.9
2017-Sep-20 16:07S 33°51' E 018°13'0 3.2
2017-Sep-20 15:58S 33°51' E 018°13'1 2.7
2017-Sep-20 15:30S 33°49' E 018°13'4 7.7
2017-Sep-20 15:00S 33°46' E 018°11'  
2017-Sep-14 18:49N 06°08' E 001°17'0 0.0
2017-Sep-14 01:58N 06°08' E 001°17'0 0.0
2017-Sep-14 01:28N 06°08' E 001°17'0 0.0
2017-Sep-14 00:58N 06°08' E 001°17'0 0.0
2017-Sep-13 23:37N 06°08' E 001°17'0 0.0
2017-Sep-13 22:07N 06°08' E 001°17'0 0.0
2017-Sep-13 21:55N 06°08' E 001°17'0 0.0
2017-Sep-13 20:53N 06°08' E 001°17'0 0.5
2017-Sep-13 20:31N 06°08' E 001°17'5912.3
2017-Sep-13 15:44N 05°27' E 000°35'620.6
2017-Sep-13 15:28N 05°25' E 000°30'920.4
2017-Sep-13 15:00N 05°21' E 000°21'1320.3
2017-Sep-13 14:23N 05°16' E 000°10'820.4
2017-Sep-13 14:00N 05°14' E 000°02'1020.4
2017-Sep-13 13:30N 05°10' W 000°08'1020.4
2017-Sep-13 13:00N 05°07' W 000°17'1020.0
2017-Sep-13 12:30N 05°04' W 000°27'9619.1
2017-Sep-13 07:29N 04°34' W 001°58'918.5
2017-Sep-13 07:00N 04°31' W 002°07'918.6
2017-Sep-13 06:30N 04°29' W 002°15'918.7
2017-Sep-13 06:00N 04°26' W 002°24'1018.9
2017-Sep-13 05:29N 04°22' W 002°33'1019.1
2017-Sep-13 04:59N 04°21' W 002°43'1019.6
2017-Sep-13 04:29N 04°21' W 002°53'1019.8
2017-Sep-13 03:59N 04°20' W 003°03'  
Track history (hours):
 
Tides and Currents Weather Stations Pressure Air Temp Water Temp Dewpoint Dewpoint Depression Visibility Wind Speed Wind Dir Waves Ship Positions

MSC Romane

Last reported at 2017-Sep-20 21:00 UTC. Time now 2017-Sep-20 23:41 UTC.
Position S 33°50' E 018°14'.

Length 299 m; draft 12.1 m.

Type: Cargo ship. MMSI: 255805867.

Date/timePositionNaut miles runAvg speedWind from/ knotsBaromVisibWave heightAir tempDewpointWater temp
2017-Sep-20 21:00S 33°50' E 018°14'2 3.3
2017-Sep-20 20:30S 33°52' E 018°13'2 4.7
2017-Sep-20 20:00S 33°54' E 018°12'0 0.9
2017-Sep-20 19:28S 33°53' E 018°12'1 1.2
2017-Sep-20 18:14S 33°52' E 018°11'0 0.9
2017-Sep-20 17:55S 33°52' E 018°12'0 0.7
2017-Sep-20 17:28S 33°52' E 018°12'0 0.7
2017-Sep-20 16:58S 33°53' E 018°12'2 1.9
2017-Sep-20 16:07S 33°51' E 018°13'0 3.2
2017-Sep-20 15:58S 33°51' E 018°13'1 2.7
2017-Sep-20 15:30S 33°49' E 018°13'4 7.7
2017-Sep-20 15:00S 33°46' E 018°11'  
2017-Sep-14 18:49N 06°08' E 001°17'0 0.0
2017-Sep-14 01:58N 06°08' E 001°17'0 0.0
2017-Sep-14 01:28N 06°08' E 001°17'0 0.0
2017-Sep-14 00:58N 06°08' E 001°17'0 0.0
2017-Sep-13 23:37N 06°08' E 001°17'0 0.0
2017-Sep-13 22:07N 06°08' E 001°17'0 0.0
2017-Sep-13 21:55N 06°08' E 001°17'0 0.0
2017-Sep-13 20:53N 06°08' E 001°17'0 0.5
2017-Sep-13 20:31N 06°08' E 001°17'5912.3
2017-Sep-13 15:44N 05°27' E 000°35'620.6
2017-Sep-13 15:28N 05°25' E 000°30'920.4
2017-Sep-13 15:00N 05°21' E 000°21'1320.3
2017-Sep-13 14:23N 05°16' E 000°10'820.4
2017-Sep-13 14:00N 05°14' E 000°02'1020.4
2017-Sep-13 13:30N 05°10' W 000°08'1020.4
2017-Sep-13 13:00N 05°07' W 000°17'1020.0
2017-Sep-13 12:30N 05°04' W 000°27'9619.1
2017-Sep-13 07:29N 04°34' W 001°58'918.5
2017-Sep-13 07:00N 04°31' W 002°07'918.6
2017-Sep-13 06:30N 04°29' W 002°15'918.7
2017-Sep-13 06:00N 04°26' W 002°24'1018.9
2017-Sep-13 05:29N 04°22' W 002°33'1019.1
2017-Sep-13 04:59N 04°21' W 002°43'1019.6
2017-Sep-13 04:29N 04°21' W 002°53'1019.8
2017-Sep-13 03:59N 04°20' W 003°03'  

Dump ship's entire track history